Terminal Aerodrome Forecast
Issued by NWS Twin Cities, MN

Home | Current Version | Previous Version | Graphics & Text | Print | Product List | Glossary On
Versions: 1 2 3 4 5 6 7 8 9 10 11 12 13 14 15 16 17
000
FTUS43 KMPX 310907 AAA
TAFSTC
TAF AMD
KSTC 310907Z 3109/0106 00000KT 5SM BR SKC
     FM311200 31012G18KT P6SM SCT090
     FM312200 34005KT P6SM BKN090
     FM010300 08005KT P6SM SCT100=

USA.gov is the U.S. government's official web portal to all federal, state and local government web resources and services.